Time;durP1;ratioP1;P1;durP2;ratioP2;P2;SDS_P1;SDS_P2;PMS_P1;PMS_P2;Temp;Humidity;BMP_temperature;BMP_pressure;BME280_temperature;BME280_humidity;BME280_pressure;Samples;Min_cycle;Max_cycle;Signal;HPM_P1;HPM_P2
2021/01/10 06:42:04;;;;;;;99.68;57.97;;;51.50;2227.20;;;;;;2245582;23;20213;-90
2021/01/10 14:33:41;;;;;;;212.20;144.05;;;51.90;2227.20;;;;;;5111268;23;20074;-87
2021/01/10 16:05:31;;;;;;;291.35;178.80;;;77.10;2227.20;;;;;;4958921;28;20174;-82
2021/01/10 16:07:57;;;;;;;277.45;168.52;;;77.10;2227.20;;;;;;4940594;29;20031;-87
2021/01/10 16:10:23;;;;;;;264.52;173.57;;;77.20;2227.20;;;;;;4957025;28;20424;-87
2021/01/10 16:12:49;;;;;;;288.30;198.32;;;77.10;2227.20;;;;;;4956722;28;20015;-86
2021/01/10 16:15:15;;;;;;;334.77;223.93;;;77.20;2227.20;;;;;;4957462;28;20019;-88
2021/01/10 16:17:42;;;;;;;289.08;185.63;;;77.20;2227.20;;;;;;4957629;28;20086;-86
2021/01/10 16:20:14;;;;;;;294.33;186.65;;;77.10;2227.20;;;;;;4956483;28;20033;-88
2021/01/10 16:26:34;;;;;;;243.43;152.60;;;76.80;2227.20;;;;;;4964755;29;19920;-88
2021/01/10 19:12:47;;;;;;;166.95;113.80;;;77.10;2227.20;;;;;;5144221;27;20533;-84
2021/01/10 19:15:57;;;;;;;176.20;113.00;;;76.90;2227.20;;;;;;5104778;28;20052;-81
2021/01/10 19:18:59;;;;;;;254.65;143.27;;;77.00;2227.20;;;;;;4907682;28;20049;-84
2021/01/10 19:22:12;;;;;;;215.00;136.80;;;76.90;2227.20;;;;;;4973996;28;20600;-80
2021/01/10 21:40:39;;;;;;;155.65;102.72;;;51.60;2227.20;;;;;;5032477;23;20124;-85
2021/01/10 21:43:08;;;;;;;186.38;125.47;;;51.60;2227.20;;;;;;5007001;28;20041;-90
2021/01/10 21:45:40;;;;;;;182.07;122.35;;;51.90;2227.20;;;;;;5006167;28;20022;-88
2021/01/10 21:48:07;;;;;;;148.32;97.85;;;51.60;2227.20;;;;;;5028643;28;20555;-86
2021/01/10 21:50:33;;;;;;;149.02;103.82;;;51.70;2227.20;;;;;;5028954;28;20048;-86
2021/01/10 21:52:59;;;;;;;185.63;120.38;;;51.80;2227.20;;;;;;5028065;28;20505;-89
2021/01/10 21:55:25;;;;;;;160.48;105.22;;;51.80;2227.20;;;;;;5014893;28;20422;-89
2021/01/10 21:57:51;;;;;;;149.35;96.25;;;51.80;2227.20;;;;;;5010493;28;20106;-87
2021/01/10 22:00:17;;;;;;;120.50;82.15;;;51.70;2227.20;;;;;;5025760;28;20018;-87
2021/01/10 22:02:44;;;;;;;115.35;76.03;;;51.70;2227.20;;;;;;5002248;28;20037;-87
2021/01/10 22:05:10;;;;;;;144.82;90.40;;;51.80;2227.20;;;;;;5009072;28;20030;-87
2021/01/10 22:30:58;;;;;;;261.73;158.43;;;51.90;2227.20;;;;;;4999306;28;20041;-87
2021/01/10 22:33:25;;;;;;;321.67;210.65;;;51.80;2227.20;;;;;;4963884;28;20038;-84
2021/01/10 22:48:16;;;;;;;144.05;81.55;;;51.90;2227.20;;;;;;4963898;28;20085;-83
2021/01/10 22:50:42;;;;;;;227.15;126.28;;;51.90;2227.20;;;;;;4979092;28;20030;-86
2021/01/10 22:53:08;;;;;;;174.13;95.97;;;51.90;2227.20;;;;;;4979242;28;20022;-85
2021/01/10 22:55:34;;;;;;;122.35;70.03;;;52.00;2227.20;;;;;;4978970;28;20030;-85
2021/01/10 22:58:00;;;;;;;97.07;57.15;;;52.00;2227.20;;;;;;4979057;28;20387;-85
2021/01/10 23:00:27;;;;;;;112.13;67.18;;;52.00;2227.20;;;;;;4980071;28;20443;-86
2021/01/10 23:02:53;;;;;;;121.85;72.70;;;51.90;2227.20;;;;;;4979035;28;20030;-86
2021/01/10 23:05:19;;;;;;;167.45;97.40;;;51.30;2227.20;;;;;;4963240;28;20026;-87
2021/01/10 23:07:46;;;;;;;210.38;120.93;;;52.00;2227.20;;;;;;4979326;28;20023;-86
2021/01/10 23:10:14;;;;;;;276.98;155.45;;;52.00;2227.20;;;;;;4979343;28;20026;-88
2021/01/10 23:12:41;;;;;;;271.85;137.77;;;52.00;2227.20;;;;;;4978956;28;20066;-88
2021/01/10 23:15:12;;;;;;;452.23;194.98;;;52.00;2227.20;;;;;;4979052;28;20037;-86
2021/01/10 23:17:39;;;;;;;336.90;144.82;;;52.00;2227.20;;;;;;4978266;28;20054;-87
2021/01/10 23:23:27;;;;;;;157.90;101.55;;;52.00;2227.20;;;;;;4995839;28;20061;-88
2021/01/10 23:25:53;;;;;;;157.90;104.85;;;51.90;2227.20;;;;;;4979101;28;20026;-86
2021/01/10 23:28:19;;;;;;;223.38;143.52;;;51.90;2227.20;;;;;;4978969;28;20514;-87
2021/01/10 23:30:45;;;;;;;228.43;144.10;;;51.80;2227.20;;;;;;4978979;28;20034;-88
2021/01/10 23:33:12;;;;;;;212.57;134.02;;;51.60;2227.20;;;;;;4962635;28;20030;-89
2021/01/10 23:35:40;;;;;;;296.27;184.18;;;51.70;2227.20;;;;;;4978411;28;20057;-87
2021/01/10 23:38:37;;;;;;;208.50;129.43;;;51.70;2227.20;;;;;;4978406;28;20061;-87
